Time;durP1;ratioP1;P1;durP2;ratioP2;P2;SDS_P1;SDS_P2;PMS_P1;PMS_P2;Temp;Humidity;BMP_temperature;BMP_pressure;BME280_temperature;BME280_humidity;BME280_pressure;Samples;Min_cycle;Max_cycle;Signal;HPM_P1;HPM_P2
2023/10/30 00:01:08;;;;;;;2.35;2.15;;;;;;;;;;5056174;28;20468;-81
2023/10/30 00:03:34;;;;;;;2.80;2.60;;;;;;;;;;5057255;28;20928;-81
2023/10/30 00:06:00;;;;;;;3.40;2.67;;;;;;;;;;5056525;28;20424;-81
2023/10/30 00:08:26;;;;;;;3.58;2.78;;;;;;;;;;5057235;28;20416;-80
2023/10/30 00:10:52;;;;;;;3.40;2.20;;;;;;;;;;5055257;28;20746;-81
2023/10/30 00:13:18;;;;;;;3.88;2.28;;;;;;;;;;5056595;28;20393;-80
2023/10/30 00:15:44;;;;;;;3.27;2.40;;;;;;;;;;5056479;28;20874;-80
2023/10/30 00:18:10;;;;;;;3.78;2.60;;;;;;;;;;5055626;28;20413;-80
2023/10/30 00:20:37;;;;;;;2.53;2.33;;;;;;;;;;5055726;28;20828;-80
2023/10/30 00:23:03;;;;;;;3.85;2.60;;;;;;;;;;5056053;28;20400;-80
2023/10/30 00:25:29;;;;;;;2.60;2.30;;;;;;;;;;5055319;28;20425;-80
2023/10/30 00:27:59;;;;;;;3.58;2.90;;;;;;;;;;5054753;28;20403;-80
2023/10/30 00:30:25;;;;;;;3.20;2.90;;;;;;;;;;5055147;28;20388;-81
2023/10/30 00:32:51;;;;;;;4.05;3.35;;;;;;;;;;5053488;28;20389;-80
2023/10/30 00:35:17;;;;;;;3.63;3.00;;;;;;;;;;5055637;28;20376;-80
2023/10/30 00:37:44;;;;;;;3.43;3.13;;;;;;;;;;5055806;28;20389;-80
2023/10/30 00:40:10;;;;;;;4.03;2.80;;;;;;;;;;5056503;28;20793;-80
2023/10/30 00:42:36;;;;;;;3.65;2.92;;;;;;;;;;5056382;28;20385;-80
2023/10/30 00:45:05;;;;;;;3.78;2.90;;;;;;;;;;5055461;28;20440;-80
2023/10/30 00:47:31;;;;;;;2.80;2.60;;;;;;;;;;5056920;28;20449;-81
2023/10/30 00:49:57;;;;;;;3.47;2.50;;;;;;;;;;5055697;28;20468;-81
2023/10/30 00:52:23;;;;;;;3.95;2.60;;;;;;;;;;5055365;28;20428;-80
2023/10/30 00:54:49;;;;;;;4.10;2.30;;;;;;;;;;5055913;28;20850;-80
2023/10/30 00:57:16;;;;;;;2.25;2.00;;;;;;;;;;5055326;28;20400;-80
2023/10/30 00:59:42;;;;;;;3.05;1.92;;;;;;;;;;5054820;28;20736;-80
2023/10/30 01:02:08;;;;;;;2.22;1.70;;;;;;;;;;5052576;28;20381;-80
2023/10/30 01:04:34;;;;;;;2.35;1.77;;;;;;;;;;5056932;28;20830;-80
2023/10/30 01:07:01;;;;;;;3.60;1.80;;;;;;;;;;5059749;28;20385;-80
2023/10/30 01:09:27;;;;;;;2.80;1.63;;;;;;;;;;5058596;28;20455;-80
2023/10/30 01:11:53;;;;;;;2.88;1.70;;;;;;;;;;5057275;28;20385;-80
2023/10/30 01:14:19;;;;;;;1.70;1.50;;;;;;;;;;5055852;28;20378;-79
2023/10/30 01:16:45;;;;;;;2.83;1.70;;;;;;;;;;5038062;28;20408;-79
2023/10/30 01:19:11;;;;;;;1.92;1.52;;;;;;;;;;5055342;28;20389;-80
2023/10/30 01:21:38;;;;;;;1.52;1.42;;;;;;;;;;5055247;28;20981;-80
2023/10/30 01:24:05;;;;;;;2.15;1.50;;;;;;;;;;5054462;28;20504;-80
2023/10/30 01:26:31;;;;;;;2.28;1.98;;;;;;;;;;5054553;28;20393;-80
2023/10/30 01:28:57;;;;;;;3.80;1.80;;;;;;;;;;5054614;28;20882;-79
2023/10/30 01:31:27;;;;;;;5.67;2.00;;;;;;;;;;5054529;28;20382;-80
2023/10/30 01:33:53;;;;;;;2.40;1.40;;;;;;;;;;5054991;28;20373;-80
2023/10/30 01:36:19;;;;;;;1.90;1.60;;;;;;;;;;5055159;28;20381;-80
2023/10/30 01:38:45;;;;;;;2.30;1.58;;;;;;;;;;5052055;28;20748;-80
2023/10/30 01:41:11;;;;;;;2.08;1.60;;;;;;;;;;5055743;28;20441;-79
2023/10/30 01:43:37;;;;;;;1.90;1.50;;;;;;;;;;5056802;28;20891;-80
2023/10/30 01:46:05;;;;;;;1.50;1.40;;;;;;;;;;5040750;28;20449;-80
2023/10/30 01:48:32;;;;;;;2.10;1.55;;;;;;;;;;5059290;28;20462;-81
2023/10/30 01:50:59;;;;;;;2.35;1.45;;;;;;;;;;5058437;28;20396;-79
2023/10/30 01:53:26;;;;;;;1.50;1.40;;;;;;;;;;5058735;28;20385;-80
2023/10/30 01:55:53;;;;;;;1.77;1.60;;;;;;;;;;5058981;28;20718;-79
2023/10/30 01:58:19;;;;;;;2.17;1.80;;;;;;;;;;5058385;28;20435;-80
2023/10/30 02:00:46;;;;;;;2.10;1.70;;;;;;;;;;5058264;28;20928;-80
2023/10/30 02:03:12;;;;;;;2.03;1.60;;;;;;;;;;5058427;28;20381;-80
2023/10/30 02:05:38;;;;;;;2.10;1.60;;;;;;;;;;5058306;28;20428;-79
2023/10/30 02:08:04;;;;;;;2.42;1.83;;;;;;;;;;5058269;28;20397;-80
2023/10/30 02:10:30;;;;;;;1.88;1.60;;;;;;;;;;5058411;28;20712;-80
2023/10/30 02:12:56;;;;;;;2.20;1.65;;;;;;;;;;5058707;28;20385;-80
2023/10/30 02:15:22;;;;;;;3.00;1.70;;;;;;;;;;5058913;28;20445;-80
2023/10/30 02:17:48;;;;;;;2.38;1.85;;;;;;;;;;5052581;28;20423;-79
2023/10/30 02:20:14;;;;;;;2.03;1.70;;;;;;;;;;5057546;28;20472;-80
2023/10/30 02:22:40;;;;;;;3.20;1.87;;;;;;;;;;5056877;28;20841;-80
2023/10/30 02:25:06;;;;;;;2.70;1.85;;;;;;;;;;5057913;28;20429;-80
2023/10/30 02:27:32;;;;;;;1.95;1.60;;;;;;;;;;5058199;28;20382;-79
2023/10/30 02:29:58;;;;;;;2.35;1.40;;;;;;;;;;5057978;28;20390;-80
2023/10/30 02:32:24;;;;;;;2.30;1.50;;;;;;;;;;5056811;28;20385;-80
2023/10/30 02:34:50;;;;;;;1.90;1.67;;;;;;;;;;5048372;28;20386;-80
2023/10/30 02:37:16;;;;;;;1.70;1.50;;;;;;;;;;5055783;28;20386;-80
2023/10/30 02:39:42;;;;;;;2.47;1.58;;;;;;;;;;5055397;28;20471;-80
2023/10/30 02:42:09;;;;;;;3.03;1.40;;;;;;;;;;5056605;28;20408;-79
2023/10/30 02:44:35;;;;;;;2.13;1.60;;;;;;;;;;5056464;28;20412;-79
2023/10/30 02:47:00;;;;;;;1.88;1.55;;;;;;;;;;5056508;28;20381;-79
2023/10/30 02:49:27;;;;;;;2.00;1.50;;;;;;;;;;5054968;28;20382;-79
2023/10/30 02:51:53;;;;;;;2.30;1.35;;;;;;;;;;5057296;28;20377;-80
2023/10/30 02:54:19;;;;;;;1.77;1.30;;;;;;;;;;5056165;28;20391;-79
2023/10/30 02:56:45;;;;;;;2.10;1.40;;;;;;;;;;5056958;28;20861;-79
2023/10/30 02:59:12;;;;;;;2.20;1.50;;;;;;;;;;5057411;28;20465;-80
2023/10/30 03:01:38;;;;;;;3.10;1.30;;;;;;;;;;5056923;28;20750;-79
2023/10/30 03:04:07;;;;;;;1.73;1.43;;;;;;;;;;5038908;28;20398;-79
2023/10/30 03:06:33;;;;;;;1.45;1.35;;;;;;;;;;5057388;28;20393;-78
2023/10/30 03:08:59;;;;;;;1.85;1.63;;;;;;;;;;5056591;28;20390;-79
2023/10/30 03:11:25;;;;;;;2.80;1.30;;;;;;;;;;5056318;28;20401;-79
2023/10/30 03:13:51;;;;;;;2.33;1.70;;;;;;;;;;5056771;28;20381;-79
2023/10/30 03:16:17;;;;;;;2.65;1.70;;;;;;;;;;5056716;28;20731;-80
2023/10/30 03:18:43;;;;;;;1.73;1.42;;;;;;;;;;5055668;28;20855;-79
2023/10/30 03:21:09;;;;;;;2.35;1.58;;;;;;;;;;5056389;28;20394;-79
2023/10/30 03:23:35;;;;;;;2.70;1.58;;;;;;;;;;5055914;28;20389;-79
2023/10/30 03:26:01;;;;;;;3.50;1.70;;;;;;;;;;5055796;28;20417;-79
2023/10/30 03:28:27;;;;;;;1.98;1.70;;;;;;;;;;5056063;28;20485;-80
2023/10/30 03:30:53;;;;;;;1.87;1.50;;;;;;;;;;5056651;28;20401;-79
2023/10/30 03:33:20;;;;;;;2.00;1.50;;;;;;;;;;5055959;28;20381;-78
2023/10/30 03:35:46;;;;;;;1.90;1.70;;;;;;;;;;5055965;28;20382;-80
2023/10/30 03:38:14;;;;;;;2.07;1.60;;;;;;;;;;5055746;28;20385;-80
2023/10/30 03:40:40;;;;;;;2.55;1.80;;;;;;;;;;5055897;28;20432;-80
2023/10/30 03:43:06;;;;;;;2.20;1.88;;;;;;;;;;5055064;28;20393;-79
2023/10/30 03:45:32;;;;;;;2.47;1.55;;;;;;;;;;5054975;28;20409;-79
2023/10/30 03:47:58;;;;;;;2.20;1.75;;;;;;;;;;5056054;28;20796;-79
2023/10/30 03:50:24;;;;;;;2.28;1.50;;;;;;;;;;5056017;28;20380;-80
2023/10/30 03:52:51;;;;;;;1.63;1.52;;;;;;;;;;5054363;28;20384;-80
2023/10/30 03:55:17;;;;;;;2.53;1.50;;;;;;;;;;5056143;28;20486;-79
2023/10/30 03:57:43;;;;;;;2.45;1.73;;;;;;;;;;5056676;28;20386;-79
2023/10/30 04:00:10;;;;;;;2.17;1.77;;;;;;;;;;5056241;28;20373;-80
2023/10/30 04:02:36;;;;;;;2.35;2.03;;;;;;;;;;5056312;28;20468;-80
2023/10/30 04:05:02;;;;;;;2.42;1.80;;;;;;;;;;5056038;28;20471;-80
2023/10/30 04:07:28;;;;;;;2.05;1.85;;;;;;;;;;5055487;28;20397;-79
2023/10/30 04:09:54;;;;;;;3.13;1.88;;;;;;;;;;5056063;28;20377;-80
2023/10/30 04:12:23;;;;;;;2.00;1.80;;;;;;;;;;5059536;28;20834;-79
2023/10/30 04:14:51;;;;;;;2.80;1.98;;;;;;;;;;5057402;28;20397;-80
2023/10/30 04:17:17;;;;;;;2.90;1.80;;;;;;;;;;5057402;28;20469;-80
2023/10/30 04:19:43;;;;;;;2.37;1.83;;;;;;;;;;5056784;28;20443;-80
2023/10/30 04:22:09;;;;;;;2.83;2.20;;;;;;;;;;5057097;28;20424;-80
2023/10/30 04:24:35;;;;;;;3.42;2.03;;;;;;;;;;5054585;28;20411;-80
2023/10/30 04:27:01;;;;;;;2.53;2.30;;;;;;;;;;5056030;28;20535;-80
2023/10/30 04:29:27;;;;;;;3.10;2.40;;;;;;;;;;5056117;28;20382;-79
2023/10/30 04:31:52;;;;;;;2.30;2.10;;;;;;;;;;5055720;28;20393;-79
2023/10/30 04:34:19;;;;;;;3.13;2.43;;;;;;;;;;5037971;28;20434;-80
2023/10/30 04:36:45;;;;;;;2.72;2.33;;;;;;;;;;5056556;28;20389;-80
2023/10/30 04:39:13;;;;;;;2.60;2.05;;;;;;;;;;5056048;28;20404;-80
2023/10/30 04:41:39;;;;;;;2.80;1.80;;;;;;;;;;5056903;28;20739;-80
2023/10/30 04:44:06;;;;;;;4.00;2.25;;;;;;;;;;5054865;28;20396;-80
2023/10/30 04:46:32;;;;;;;2.83;2.47;;;;;;;;;;5055859;28;20483;-80
2023/10/30 04:48:58;;;;;;;2.87;2.53;;;;;;;;;;5055216;28;20431;-79
2023/10/30 04:51:25;;;;;;;2.67;2.47;;;;;;;;;;5054731;28;20410;-79
2023/10/30 04:53:54;;;;;;;4.88;2.83;;;;;;;;;;5055743;28;20715;-80
2023/10/30 04:56:20;;;;;;;3.50;2.45;;;;;;;;;;5049051;28;20380;-80
2023/10/30 04:58:46;;;;;;;2.35;2.08;;;;;;;;;;5055576;28;20392;-80
2023/10/30 05:01:13;;;;;;;2.30;2.10;;;;;;;;;;5055357;28;20385;-80
2023/10/30 05:03:39;;;;;;;3.57;2.53;;;;;;;;;;5054717;28;20463;-79
2023/10/30 05:06:05;;;;;;;5.07;2.92;;;;;;;;;;5054552;28;20424;-80
2023/10/30 05:08:32;;;;;;;3.90;2.42;;;;;;;;;;5054942;28;20385;-80
2023/10/30 05:10:59;;;;;;;3.17;2.78;;;;;;;;;;5054477;28;20377;-80
2023/10/30 05:13:25;;;;;;;2.72;2.53;;;;;;;;;;5055756;28;20842;-79
2023/10/30 05:15:51;;;;;;;2.70;2.50;;;;;;;;;;5054709;28;20393;-79
2023/10/30 05:18:21;;;;;;;2.47;2.33;;;;;;;;;;5057742;28;20376;-79
2023/10/30 05:20:47;;;;;;;5.43;2.58;;;;;;;;;;5058322;28;20384;-79
2023/10/30 05:23:13;;;;;;;2.65;2.45;;;;;;;;;;5059598;28;20412;-80
2023/10/30 05:25:39;;;;;;;2.90;2.30;;;;;;;;;;5058402;28;20424;-79
2023/10/30 05:28:05;;;;;;;3.70;2.13;;;;;;;;;;5058785;28;20385;-79
2023/10/30 05:30:33;;;;;;;2.50;2.03;;;;;;;;;;5058771;28;20720;-79
2023/10/30 05:32:59;;;;;;;2.38;2.17;;;;;;;;;;5058309;28;20389;-80
2023/10/30 05:35:25;;;;;;;3.43;2.43;;;;;;;;;;5058037;28;20834;-80
2023/10/30 05:37:51;;;;;;;2.55;2.35;;;;;;;;;;5057242;28;20381;-80
2023/10/30 05:40:17;;;;;;;2.17;2.00;;;;;;;;;;5057434;28;20397;-81
2023/10/30 05:42:43;;;;;;;1.83;1.67;;;;;;;;;;5057543;28;20388;-81
2023/10/30 05:45:09;;;;;;;2.72;1.92;;;;;;;;;;5057207;28;20420;-81
2023/10/30 05:47:36;;;;;;;1.77;1.67;;;;;;;;;;5058022;28;20408;-80
2023/10/30 05:50:05;;;;;;;2.10;1.90;;;;;;;;;;5057778;28;20381;-80
2023/10/30 05:52:31;;;;;;;2.93;1.93;;;;;;;;;;5057739;28;20400;-81
2023/10/30 05:54:57;;;;;;;2.63;2.30;;;;;;;;;;5057170;28;20839;-81
2023/10/30 05:57:23;;;;;;;2.75;2.38;;;;;;;;;;5057275;28;20388;-80
2023/10/30 05:59:49;;;;;;;2.38;2.10;;;;;;;;;;5058086;28;20382;-80
2023/10/30 06:02:15;;;;;;;2.80;2.42;;;;;;;;;;5037551;28;20432;-81
2023/10/30 06:04:41;;;;;;;2.47;2.28;;;;;;;;;;5053491;28;20409;-81
2023/10/30 06:07:07;;;;;;;2.50;2.20;;;;;;;;;;5057763;28;20376;-80
2023/10/30 06:09:34;;;;;;;3.10;2.17;;;;;;;;;;5057284;28;20392;-81
2023/10/30 06:12:00;;;;;;;3.25;2.60;;;;;;;;;;5057817;28;20771;-80
2023/10/30 06:14:26;;;;;;;2.95;2.13;;;;;;;;;;5057659;28;20401;-80
2023/10/30 06:16:52;;;;;;;2.63;2.40;;;;;;;;;;5055585;28;20472;-80
2023/10/30 06:19:18;;;;;;;2.58;2.38;;;;;;;;;;5056863;28;20859;-80
2023/10/30 06:21:44;;;;;;;3.00;2.78;;;;;;;;;;5057541;28;20508;-81
2023/10/30 06:24:11;;;;;;;3.07;2.70;;;;;;;;;;5053364;28;20751;-80
2023/10/30 06:26:42;;;;;;;4.03;3.50;;;;;;;;;;5056744;28;20377;-80
2023/10/30 06:29:09;;;;;;;3.72;3.38;;;;;;;;;;5056004;28;21037;-80
2023/10/30 06:31:35;;;;;;;5.57;4.05;;;;;;;;;;5057198;28;20458;-80
2023/10/30 06:34:02;;;;;;;5.35;4.10;;;;;;;;;;5039290;28;20394;-81
2023/10/30 06:36:28;;;;;;;4.93;4.53;;;;;;;;;;5056896;28;20431;-81
2023/10/30 06:38:57;;;;;;;6.30;4.88;;;;;;;;;;5056455;28;21016;-80
2023/10/30 06:41:23;;;;;;;5.88;5.43;;;;;;;;;;5056977;28;20822;-81
2023/10/30 06:43:51;;;;;;;7.45;6.75;;;;;;;;;;5058365;28;20480;-82
2023/10/30 06:46:17;;;;;;;7.53;6.93;;;;;;;;;;5057346;28;20413;-82
2023/10/30 06:48:43;;;;;;;8.40;7.50;;;;;;;;;;5057799;28;20381;-80
2023/10/30 06:51:09;;;;;;;8.15;7.50;;;;;;;;;;5057820;28;20456;-80
2023/10/30 06:53:34;;;;;;;7.65;7.05;;;;;;;;;;5057910;28;20433;-80
2023/10/30 06:56:00;;;;;;;8.38;7.57;;;;;;;;;;5057985;28;20389;-80
2023/10/30 06:58:26;;;;;;;9.88;8.95;;;;;;;;;;5056946;28;20381;-80
2023/10/30 07:00:52;;;;;;;9.23;8.43;;;;;;;;;;5057175;28;20447;-80
2023/10/30 07:03:19;;;;;;;9.98;8.98;;;;;;;;;;5056454;28;20464;-81
2023/10/30 07:05:44;;;;;;;9.77;8.98;;;;;;;;;;5056940;28;20452;-81
2023/10/30 07:08:10;;;;;;;9.48;8.68;;;;;;;;;;5057757;28;20389;-81
2023/10/30 07:10:37;;;;;;;8.80;8.10;;;;;;;;;;5057033;28;20384;-80
2023/10/30 07:13:03;;;;;;;10.48;9.57;;;;;;;;;;5056224;28;20492;-80
2023/10/30 07:15:29;;;;;;;10.30;9.40;;;;;;;;;;5057000;28;20469;-81
2023/10/30 07:17:58;;;;;;;9.82;8.90;;;;;;;;;;5055491;28;20390;-81
2023/10/30 07:20:24;;;;;;;10.18;9.27;;;;;;;;;;5060695;28;20394;-82
2023/10/30 07:22:50;;;;;;;10.98;9.82;;;;;;;;;;5059714;28;20472;-81
2023/10/30 07:25:16;;;;;;;10.70;9.80;;;;;;;;;;5057595;28;20413;-83
2023/10/30 07:27:42;;;;;;;11.77;10.57;;;;;;;;;;5057584;28;20413;-83
2023/10/30 07:30:08;;;;;;;11.52;10.43;;;;;;;;;;5057121;28;20423;-79
2023/10/30 07:32:37;;;;;;;11.85;10.85;;;;;;;;;;5056468;28;20456;-80
2023/10/30 07:35:03;;;;;;;12.70;11.50;;;;;;;;;;5056276;28;20539;-80
2023/10/30 07:37:29;;;;;;;13.30;12.02;;;;;;;;;;5056141;28;20439;-79
2023/10/30 07:39:55;;;;;;;12.35;11.13;;;;;;;;;;5056315;28;20393;-80
2023/10/30 07:42:21;;;;;;;12.50;11.30;;;;;;;;;;5056033;28;20404;-80
2023/10/30 07:44:47;;;;;;;11.50;10.60;;;;;;;;;;5054973;28;20480;-80
2023/10/30 07:47:13;;;;;;;12.68;11.63;;;;;;;;;;5056089;28;20396;-81
2023/10/30 07:49:39;;;;;;;12.30;11.20;;;;;;;;;;5055307;28;20396;-82
2023/10/30 07:52:06;;;;;;;12.43;11.25;;;;;;;;;;5056195;28;20382;-82
2023/10/30 07:54:32;;;;;;;13.43;12.23;;;;;;;;;;5038283;28;20425;-81
2023/10/30 07:56:58;;;;;;;14.40;12.98;;;;;;;;;;5056031;28;20795;-81
2023/10/30 07:59:24;;;;;;;13.13;12.03;;;;;;;;;;5056292;28;20396;-81
2023/10/30 08:01:51;;;;;;;15.32;12.80;;;;;;;;;;5055849;28;20781;-81
2023/10/30 08:04:17;;;;;;;14.13;12.93;;;;;;;;;;5056586;28;20390;-81
2023/10/30 08:06:43;;;;;;;13.77;12.57;;;;;;;;;;5056563;28;20396;-81
2023/10/30 08:09:08;;;;;;;14.57;13.37;;;;;;;;;;5055957;28;20494;-81
2023/10/30 08:11:37;;;;;;;14.45;13.15;;;;;;;;;;5056499;28;20405;-82
2023/10/30 08:14:03;;;;;;;13.23;12.05;;;;;;;;;;5046705;28;20393;-81
2023/10/30 08:16:29;;;;;;;13.55;12.35;;;;;;;;;;5054606;28;20747;-82
2023/10/30 08:18:55;;;;;;;13.65;12.45;;;;;;;;;;5054102;28;20389;-82
2023/10/30 08:21:21;;;;;;;12.52;11.52;;;;;;;;;;5055933;28;20435;-82
2023/10/30 08:23:47;;;;;;;14.35;13.15;;;;;;;;;;5056282;28;20839;-82
2023/10/30 08:26:13;;;;;;;13.13;12.03;;;;;;;;;;5055732;28;20459;-82
2023/10/30 08:28:39;;;;;;;13.48;12.30;;;;;;;;;;5055473;28;20397;-81
2023/10/30 08:31:05;;;;;;;14.77;13.38;;;;;;;;;;5056105;28;20389;-81
2023/10/30 08:33:31;;;;;;;13.80;12.50;;;;;;;;;;5055378;28;20731;-82
2023/10/30 08:35:57;;;;;;;13.93;12.63;;;;;;;;;;5055557;28;20388;-81
2023/10/30 08:38:23;;;;;;;12.68;11.68;;;;;;;;;;5054798;28;20381;-82
2023/10/30 08:40:52;;;;;;;12.60;11.50;;;;;;;;;;5054650;28;20473;-82
2023/10/30 08:43:18;;;;;;;13.85;12.75;;;;;;;;;;5055851;28;20726;-81
2023/10/30 08:45:44;;;;;;;13.43;12.30;;;;;;;;;;5054923;28;20425;-81
2023/10/30 08:48:13;;;;;;;13.60;12.50;;;;;;;;;;5054597;28;20409;-82
2023/10/30 08:50:40;;;;;;;14.40;13.10;;;;;;;;;;5054595;28;20830;-82
2023/10/30 08:53:07;;;;;;;14.68;13.43;;;;;;;;;;5053935;28;20385;-82
2023/10/30 08:55:33;;;;;;;13.52;12.52;;;;;;;;;;5053313;28;20389;-81
2023/10/30 08:57:59;;;;;;;14.90;13.60;;;;;;;;;;5054172;28;20849;-82
2023/10/30 09:00:26;;;;;;;14.00;12.80;;;;;;;;;;5053876;28;20740;-82
2023/10/30 09:02:52;;;;;;;14.80;13.60;;;;;;;;;;5053804;28;20409;-82
2023/10/30 09:05:18;;;;;;;13.45;12.27;;;;;;;;;;5053292;28;20479;-82
2023/10/30 09:07:46;;;;;;;13.02;12.00;;;;;;;;;;5052830;28;20390;-81
2023/10/30 09:10:12;;;;;;;13.23;12.23;;;;;;;;;;5054566;28;20827;-81
2023/10/30 09:12:38;;;;;;;12.60;11.60;;;;;;;;;;5052837;28;20386;-82
2023/10/30 09:15:05;;;;;;;13.57;12.48;;;;;;;;;;5054539;28;20732;-82
2023/10/30 09:17:31;;;;;;;13.45;12.45;;;;;;;;;;5054632;28;20391;-82
2023/10/30 09:19:57;;;;;;;13.25;12.02;;;;;;;;;;5054658;28;20903;-82
2023/10/30 09:22:23;;;;;;;12.13;11.23;;;;;;;;;;5055127;28;20396;-82
2023/10/30 09:24:49;;;;;;;12.85;11.80;;;;;;;;;;5054691;28;20894;-81
2023/10/30 09:27:15;;;;;;;13.88;12.77;;;;;;;;;;5054536;28;20377;-82
2023/10/30 09:29:41;;;;;;;13.10;12.10;;;;;;;;;;5054784;28;20413;-81
2023/10/30 09:32:07;;;;;;;13.33;12.33;;;;;;;;;;5054513;28;20377;-81
2023/10/30 09:34:34;;;;;;;14.00;12.80;;;;;;;;;;5055166;28;20381;-82
2023/10/30 09:37:00;;;;;;;12.52;11.52;;;;;;;;;;5054888;28;20431;-82
2023/10/30 09:39:26;;;;;;;13.90;12.70;;;;;;;;;;5054776;28;20378;-82
2023/10/30 09:41:54;;;;;;;12.95;11.95;;;;;;;;;;5054929;28;20459;-82
2023/10/30 09:44:21;;;;;;;12.75;11.75;;;;;;;;;;5055174;28;20382;-82
2023/10/30 09:46:47;;;;;;;14.48;13.27;;;;;;;;;;5055280;28;20389;-82
2023/10/30 09:49:14;;;;;;;14.02;12.82;;;;;;;;;;5055320;28;20382;-81
2023/10/30 09:51:42;;;;;;;13.55;12.40;;;;;;;;;;5054926;28;20385;-82
2023/10/30 09:54:08;;;;;;;14.32;13.20;;;;;;;;;;5054229;28;20382;-82
2023/10/30 09:56:35;;;;;;;14.23;13.02;;;;;;;;;;5053591;28;20762;-80
2023/10/30 09:59:01;;;;;;;13.98;12.77;;;;;;;;;;5053998;28;20377;-80
2023/10/30 10:01:27;;;;;;;13.20;12.10;;;;;;;;;;5054090;28;20511;-82
2023/10/30 10:03:55;;;;;;;13.90;12.70;;;;;;;;;;5054785;28;20440;-82
2023/10/30 10:06:21;;;;;;;13.27;12.27;;;;;;;;;;5057171;28;20421;-82
2023/10/30 10:08:47;;;;;;;13.07;11.93;;;;;;;;;;5058182;28;20810;-82
2023/10/30 10:11:13;;;;;;;12.73;11.73;;;;;;;;;;5058355;28;20385;-83
2023/10/30 10:13:43;;;;;;;13.37;12.37;;;;;;;;;;5055183;28;20722;-82
2023/10/30 10:16:11;;;;;;;14.23;13.13;;;;;;;;;;5054016;28;20386;-82
2023/10/30 10:18:36;;;;;;;14.27;13.23;;;;;;;;;;5054845;28;20393;-82
2023/10/30 10:21:03;;;;;;;15.70;14.40;;;;;;;;;;5058109;28;20385;-82
2023/10/30 10:23:33;;;;;;;14.73;13.53;;;;;;;;;;5057577;28;20457;-81
2023/10/30 10:26:06;;;;;;;15.25;13.98;;;;;;;;;;5057447;28;20481;-82
2023/10/30 10:28:33;;;;;;;15.68;14.38;;;;;;;;;;5060482;28;20381;-82
2023/10/30 10:30:59;;;;;;;16.40;14.93;;;;;;;;;;5060529;28;20386;-81
2023/10/30 10:33:27;;;;;;;14.88;13.68;;;;;;;;;;5057394;28;20468;-82
2023/10/30 10:36:03;;;;;;;16.20;14.80;;;;;;;;;;5056189;28;20420;-82
2023/10/30 10:38:30;;;;;;;15.07;13.88;;;;;;;;;;5056607;28;20444;-82
2023/10/30 10:40:56;;;;;;;13.70;12.60;;;;;;;;;;5056608;28;20469;-83
2023/10/30 10:43:23;;;;;;;13.85;12.45;;;;;;;;;;5057173;28;20443;-83
2023/10/30 10:45:51;;;;;;;12.77;11.77;;;;;;;;;;5056467;28;20423;-82
2023/10/30 10:48:18;;;;;;;11.90;11.00;;;;;;;;;;5056172;28;20393;-80
2023/10/30 10:50:44;;;;;;;10.68;9.88;;;;;;;;;;5055938;28;20389;-82
2023/10/30 10:53:11;;;;;;;10.50;9.70;;;;;;;;;;5056277;28;20432;-82
2023/10/30 10:55:44;;;;;;;10.15;9.35;;;;;;;;;;5055850;28;20381;-82
2023/10/30 10:58:19;;;;;;;10.27;9.48;;;;;;;;;;5048604;28;20378;-82
2023/10/30 11:00:49;;;;;;;9.43;8.73;;;;;;;;;;5056065;28;20882;-81
2023/10/30 11:03:16;;;;;;;10.93;9.97;;;;;;;;;;5056288;28;20396;-81
2023/10/30 11:05:43;;;;;;;9.80;9.00;;;;;;;;;;5055537;28;20508;-82
2023/10/30 11:08:11;;;;;;;9.63;8.82;;;;;;;;;;5056844;28;20473;-82
2023/10/30 11:10:40;;;;;;;9.48;8.57;;;;;;;;;;5056224;28;20385;-81
2023/10/30 11:13:07;;;;;;;8.83;8.23;;;;;;;;;;5055341;28;20411;-81
2023/10/30 11:15:37;;;;;;;9.02;8.32;;;;;;;;;;5055115;28;20389;-82
2023/10/30 11:18:21;;;;;;;9.30;8.50;;;;;;;;;;5054883;28;20389;-81
2023/10/30 11:20:47;;;;;;;8.50;7.80;;;;;;;;;;5055229;28;20389;-82
2023/10/30 11:23:14;;;;;;;8.75;8.05;;;;;;;;;;5035600;28;20413;-81
2023/10/30 11:25:41;;;;;;;8.10;7.40;;;;;;;;;;5054931;28;20424;-81
2023/10/30 11:28:07;;;;;;;8.15;7.50;;;;;;;;;;5056138;28;20382;-82
2023/10/30 11:30:41;;;;;;;7.90;7.20;;;;;;;;;;5056650;28;20397;-82
2023/10/30 11:33:17;;;;;;;7.55;6.85;;;;;;;;;;5056978;28;20413;-81
2023/10/30 11:35:45;;;;;;;7.60;7.00;;;;;;;;;;5056547;28;20431;-82
2023/10/30 11:38:12;;;;;;;7.55;6.95;;;;;;;;;;5056316;28;20451;-82
2023/10/30 11:40:38;;;;;;;7.07;6.57;;;;;;;;;;5056976;28;20412;-82
2023/10/30 11:43:07;;;;;;;6.70;6.20;;;;;;;;;;5038666;28;20397;-81
2023/10/30 11:45:33;;;;;;;7.22;6.68;;;;;;;;;;5056857;28;20417;-81
2023/10/30 11:48:02;;;;;;;6.30;5.80;;;;;;;;;;5056685;28;20385;-82
2023/10/30 11:50:28;;;;;;;6.55;6.05;;;;;;;;;;5055872;28;20855;-82
2023/10/30 11:52:55;;;;;;;6.95;6.35;;;;;;;;;;5056802;28;20392;-81
2023/10/30 11:55:22;;;;;;;6.50;5.80;;;;;;;;;;5056785;28;20766;-82
2023/10/30 11:57:48;;;;;;;5.65;5.15;;;;;;;;;;5056309;28;20873;-82
2023/10/30 12:00:15;;;;;;;6.20;5.68;;;;;;;;;;5056253;28;20381;-82
2023/10/30 12:02:41;;;;;;;5.95;5.45;;;;;;;;;;5056231;28;20389;-81
2023/10/30 12:05:08;;;;;;;5.80;5.30;;;;;;;;;;5056057;28;20486;-82
2023/10/30 12:07:38;;;;;;;5.60;5.20;;;;;;;;;;5037278;28;20393;-81
2023/10/30 12:10:04;;;;;;;5.45;5.05;;;;;;;;;;5037843;28;20798;-82
2023/10/30 12:12:33;;;;;;;5.57;5.07;;;;;;;;;;5052500;28;20402;-81
2023/10/30 12:15:00;;;;;;;5.80;5.32;;;;;;;;;;5056066;28;20921;-81
2023/10/30 12:17:29;;;;;;;5.35;4.93;;;;;;;;;;5055084;28;20389;-82
2023/10/30 12:19:55;;;;;;;5.40;5.00;;;;;;;;;;5055209;28;20385;-82
2023/10/30 12:22:22;;;;;;;5.20;4.80;;;;;;;;;;5055052;28;20480;-81
2023/10/30 12:24:49;;;;;;;5.20;4.80;;;;;;;;;;5055343;28;20428;-82
2023/10/30 12:27:21;;;;;;;5.10;4.60;;;;;;;;;;5054743;28;20408;-81
2023/10/30 12:29:52;;;;;;;5.03;4.63;;;;;;;;;;5054977;28;20869;-81
2023/10/30 12:32:17;;;;;;;5.18;4.78;;;;;;;;;;5055134;28;20875;-82
2023/10/30 12:34:43;;;;;;;5.22;4.75;;;;;;;;;;5056014;28;20797;-81
2023/10/30 12:37:19;;;;;;;5.70;5.20;;;;;;;;;;5055135;28;20389;-81
2023/10/30 12:40:04;;;;;;;4.93;4.40;;;;;;;;;;5054992;28;20392;-81
2023/10/30 12:42:34;;;;;;;5.40;5.00;;;;;;;;;;5055752;28;20525;-81
2023/10/30 12:45:05;;;;;;;4.95;4.55;;;;;;;;;;5054721;28;20413;-81
2023/10/30 12:47:32;;;;;;;5.57;5.15;;;;;;;;;;5055279;28;20415;-81
2023/10/30 12:49:58;;;;;;;5.60;5.10;;;;;;;;;;5053941;28;20456;-81
2023/10/30 12:52:24;;;;;;;5.43;5.03;;;;;;;;;;5054180;28;20438;-81
2023/10/30 12:54:51;;;;;;;5.28;4.88;;;;;;;;;;5054709;28;20901;-81
2023/10/30 12:57:16;;;;;;;5.15;4.65;;;;;;;;;;5054710;28;20389;-81
2023/10/30 12:59:42;;;;;;;5.53;5.13;;;;;;;;;;5054545;28;20386;-82
2023/10/30 13:02:09;;;;;;;5.50;4.80;;;;;;;;;;5055255;28;20373;-81
2023/10/30 13:04:35;;;;;;;4.70;4.40;;;;;;;;;;5054941;28;20413;-81
2023/10/30 13:07:01;;;;;;;5.07;4.67;;;;;;;;;;5054897;28;20397;-81
2023/10/30 13:09:27;;;;;;;4.95;4.55;;;;;;;;;;5054368;28;20913;-81
2023/10/30 13:11:53;;;;;;;5.32;4.93;;;;;;;;;;5052717;28;20398;-83
2023/10/30 13:14:19;;;;;;;8.60;7.70;;;;;;;;;;5054866;28;20884;-81
2023/10/30 13:16:45;;;;;;;6.30;5.80;;;;;;;;;;5054991;28;20535;-82
2023/10/30 13:19:11;;;;;;;5.50;5.00;;;;;;;;;;5054776;28;20382;-81
2023/10/30 13:21:38;;;;;;;6.13;5.53;;;;;;;;;;5038275;28;20390;-82
2023/10/30 13:24:04;;;;;;;4.65;4.30;;;;;;;;;;5055773;28;20484;-82
2023/10/30 13:26:30;;;;;;;4.30;4.00;;;;;;;;;;5054951;28;20425;-81
2023/10/30 13:28:56;;;;;;;4.93;4.53;;;;;;;;;;5056932;28;20396;-81
2023/10/30 13:31:22;;;;;;;4.15;3.85;;;;;;;;;;5056405;28;20908;-81
2023/10/30 13:33:48;;;;;;;7.25;6.65;;;;;;;;;;5055482;28;20398;-82
2023/10/30 13:36:16;;;;;;;4.20;3.90;;;;;;;;;;5056297;28;20421;-82
2023/10/30 13:38:42;;;;;;;4.07;3.67;;;;;;;;;;5061283;28;20409;-81
2023/10/30 13:41:08;;;;;;;4.03;3.70;;;;;;;;;;5063975;28;20389;-81
2023/10/30 13:43:34;;;;;;;4.78;4.38;;;;;;;;;;5057590;28;20407;-81
2023/10/30 13:46:00;;;;;;;3.95;3.45;;;;;;;;;;5054217;28;20478;-82
2023/10/30 13:48:26;;;;;;;3.63;3.33;;;;;;;;;;5036719;28;20424;-82
2023/10/30 13:50:52;;;;;;;3.63;3.33;;;;;;;;;;5055552;28;20389;-82
2023/10/30 13:53:18;;;;;;;4.45;3.60;;;;;;;;;;5054449;28;20715;-82
2023/10/30 13:55:44;;;;;;;3.38;3.08;;;;;;;;;;5052070;28;20883;-82
2023/10/30 13:58:10;;;;;;;4.03;3.20;;;;;;;;;;5055407;28;20451;-82
2023/10/30 14:00:36;;;;;;;3.53;3.22;;;;;;;;;;5037089;28;20398;-82
2023/10/30 14:03:02;;;;;;;4.00;3.38;;;;;;;;;;5055650;28;20862;-82
2023/10/30 14:05:28;;;;;;;4.00;3.60;;;;;;;;;;5053649;28;20899;-82
2023/10/30 14:07:54;;;;;;;5.50;4.47;;;;;;;;;;5052960;28;20405;-82
2023/10/30 14:10:21;;;;;;;3.95;3.60;;;;;;;;;;5055818;28;20389;-82
2023/10/30 14:12:47;;;;;;;3.90;3.60;;;;;;;;;;5054889;28;20393;-82
2023/10/30 14:15:13;;;;;;;4.18;3.60;;;;;;;;;;5039601;28;20466;-82
2023/10/30 14:17:39;;;;;;;4.78;4.38;;;;;;;;;;5057436;28;20463;-82
2023/10/30 14:20:05;;;;;;;3.35;3.08;;;;;;;;;;5055176;28;20397;-82
2023/10/30 14:22:32;;;;;;;3.58;3.13;;;;;;;;;;5038524;28;20385;-82
2023/10/30 14:24:58;;;;;;;4.63;3.30;;;;;;;;;;5056700;28;20410;-82
2023/10/30 14:27:24;;;;;;;3.80;3.50;;;;;;;;;;5056058;28;20480;-82
2023/10/30 14:29:50;;;;;;;4.00;3.60;;;;;;;;;;5056230;28;20435;-82
2023/10/30 14:32:16;;;;;;;3.67;3.38;;;;;;;;;;5056796;28;20390;-82